createdAt,value
2023-08-07T00:02:46.444Z,14.63
2023-08-07T00:07:48.486Z,14.65
2023-08-07T00:12:50.854Z,14.67
2023-08-07T00:17:52.815Z,14.66
2023-08-07T00:22:54.520Z,14.70
2023-08-07T00:27:56.174Z,14.74
2023-08-07T00:32:58.294Z,14.75
2023-08-07T00:38:00.024Z,14.74
2023-08-07T00:43:03.389Z,14.73
2023-08-07T00:48:06.369Z,14.77
2023-08-07T00:53:08.263Z,14.81
2023-08-07T00:58:10.082Z,14.84
2023-08-07T01:03:13.189Z,14.87
2023-08-07T01:08:15.555Z,14.82
2023-08-07T01:13:30.585Z,14.79
2023-08-07T01:18:32.405Z,14.80
2023-08-07T01:23:34.133Z,14.78
2023-08-07T01:28:39.616Z,14.73
2023-08-07T01:33:48.660Z,14.71
2023-08-07T01:38:51.734Z,14.62
2023-08-07T01:43:53.557Z,14.55
2023-08-07T01:48:55.743Z,14.56
2023-08-07T01:53:57.404Z,14.58
2023-08-07T01:58:59.085Z,14.62
2023-08-07T02:04:00.895Z,14.65
2023-08-07T02:09:02.605Z,14.67
2023-08-07T02:14:04.309Z,14.63
2023-08-07T02:19:06.098Z,14.63
2023-08-07T02:24:08.346Z,14.64
2023-08-07T02:29:10.273Z,14.65
2023-08-07T02:34:12.025Z,14.66
2023-08-07T02:39:14.904Z,14.68
2023-08-07T02:44:18.526Z,14.71
2023-08-07T02:49:20.177Z,14.75
2023-08-07T02:54:21.867Z,14.78
2023-08-07T02:59:23.592Z,14.75
2023-08-07T03:04:25.385Z,14.69
2023-08-07T03:09:27.083Z,14.64
2023-08-07T03:14:28.831Z,14.48
2023-08-07T03:19:30.514Z,14.02
2023-08-07T03:24:32.196Z,13.62
2023-08-07T03:29:34.045Z,13.32
2023-08-07T03:34:36.016Z,13.19
2023-08-07T03:39:37.957Z,13.11
2023-08-07T03:44:39.854Z,13.11
2023-08-07T03:49:41.697Z,13.09
2023-08-07T03:54:43.451Z,13.14
2023-08-07T03:59:45.214Z,13.19
2023-08-07T04:04:47.592Z,13.24
2023-08-07T04:09:49.278Z,13.34
2023-08-07T04:14:50.954Z,13.44
2023-08-07T04:19:52.634Z,13.52
2023-08-07T04:24:54.299Z,13.58
2023-08-07T04:29:56.102Z,13.66
2023-08-07T04:35:00.468Z,13.72
2023-08-07T04:40:02.256Z,13.81
2023-08-07T04:45:04.137Z,13.86
2023-08-07T04:50:06.140Z,13.95
2023-08-07T04:55:08.138Z,13.98
2023-08-07T05:00:10.752Z,14.03
2023-08-07T05:05:12.513Z,14.11
2023-08-07T05:10:14.368Z,14.14
2023-08-07T05:15:16.070Z,14.22
2023-08-07T05:20:18.679Z,14.30
2023-08-07T05:25:20.413Z,14.40
2023-08-07T05:30:22.102Z,14.52
2023-08-07T05:35:23.879Z,14.62
2023-08-07T05:40:27.077Z,14.69
2023-08-07T05:45:28.830Z,14.79
2023-08-07T05:50:30.560Z,14.90
2023-08-07T05:55:32.343Z,15.01
2023-08-07T06:00:34.146Z,15.07
2023-08-07T06:05:36.281Z,15.08
2023-08-07T06:10:38.771Z,15.13
2023-08-07T06:15:40.636Z,15.23
2023-08-07T06:20:42.278Z,15.25
2023-08-07T06:25:44.186Z,15.31
2023-08-07T06:30:45.971Z,15.44
2023-08-07T06:35:48.029Z,15.65
2023-08-07T06:40:49.718Z,15.75
2023-08-07T06:45:51.827Z,15.80
2023-08-07T06:50:53.564Z,16.02
2023-08-07T06:55:57.642Z,16.10
2023-08-07T07:00:59.774Z,16.19
2023-08-07T07:06:01.624Z,16.34
2023-08-07T07:11:03.925Z,16.42
2023-08-07T07:16:05.708Z,16.61
2023-08-07T07:21:07.494Z,16.97
2023-08-07T07:26:09.300Z,17.09
2023-08-07T07:31:12.760Z,17.21
2023-08-07T07:36:17.103Z,17.89
2023-08-07T07:41:19.772Z,18.05
2023-08-07T07:46:21.445Z,18.07
2023-08-07T07:51:23.154Z,18.15
2023-08-07T07:56:25.087Z,18.02
2023-08-07T08:01:26.737Z,18.06
2023-08-07T08:06:28.492Z,18.25
2023-08-07T08:11:30.173Z,18.41
2023-08-07T08:16:31.883Z,18.14
2023-08-07T08:21:33.623Z,18.11
2023-08-07T08:26:35.728Z,18.31
2023-08-07T08:31:37.568Z,18.29
2023-08-07T08:36:40.192Z,18.02
2023-08-07T08:41:43.977Z,17.96
2023-08-07T08:46:46.800Z,18.00
2023-08-07T08:51:48.693Z,18.15
2023-08-07T08:56:50.736Z,18.26
2023-08-07T09:01:53.828Z,18.36
2023-08-07T09:06:55.962Z,18.07
2023-08-07T09:11:58.628Z,18.35
2023-08-07T09:17:02.124Z,18.87
2023-08-07T09:22:04.031Z,18.72
2023-08-07T09:27:08.824Z,18.67
2023-08-07T09:32:13.618Z,18.79
2023-08-07T09:37:15.392Z,18.75
2023-08-07T09:42:17.758Z,19.01
2023-08-07T09:47:20.447Z,19.08
2023-08-07T09:52:22.278Z,18.42
2023-08-07T09:57:23.944Z,18.79
2023-08-07T10:02:26.070Z,19.19
2023-08-07T10:07:27.971Z,18.37
2023-08-07T10:12:29.881Z,17.95
2023-08-07T10:17:32.988Z,18.06
2023-08-07T10:22:37.833Z,18.21
2023-08-07T10:27:41.496Z,18.29
2023-08-07T10:32:44.088Z,17.55
2023-08-07T10:37:46.477Z,16.52
2023-08-07T10:43:00.529Z,16.49
2023-08-07T10:48:19.291Z,17.00
2023-08-07T10:53:23.181Z,17.02
2023-08-07T10:58:36.119Z,16.73
2023-08-07T11:03:37.846Z,17.47
2023-08-07T11:08:39.746Z,18.07
2023-08-07T11:13:41.583Z,18.36
2023-08-07T11:18:43.747Z,18.72
2023-08-07T11:23:46.815Z,18.65
2023-08-07T11:28:49.078Z,18.42
2023-08-07T11:33:55.861Z,18.26
2023-08-07T11:38:57.746Z,17.99
2023-08-07T11:44:00.845Z,17.63
2023-08-07T11:49:04.878Z,17.19
2023-08-07T11:54:07.055Z,17.08
2023-08-07T11:59:08.783Z,16.93
2023-08-07T12:04:11.398Z,16.60
2023-08-07T12:09:14.287Z,16.74
2023-08-07T12:14:18.364Z,17.26
2023-08-07T12:19:20.289Z,17.81
2023-08-07T12:24:22.267Z,17.97
2023-08-07T12:29:25.695Z,17.88
2023-08-07T12:44:36.534Z,17.45
2023-08-07T12:49:38.206Z,17.78
2023-08-07T12:54:39.901Z,18.07
2023-08-07T12:59:41.572Z,18.27
2023-08-07T13:04:43.243Z,17.98
2023-08-07T13:09:45.122Z,17.59
2023-08-07T13:14:46.798Z,17.79
2023-08-07T13:19:48.481Z,18.24
2023-08-07T13:24:50.146Z,18.58
2023-08-07T13:29:52.000Z,18.57
2023-08-07T13:34:54.134Z,19.05
2023-08-07T13:39:56.883Z,18.97
2023-08-07T13:44:59.298Z,18.78
2023-08-07T13:50:02.423Z,18.42
2023-08-07T13:55:04.502Z,18.14
2023-08-07T14:00:06.702Z,17.82
2023-08-07T14:05:08.426Z,17.42
2023-08-07T14:10:10.241Z,16.63
2023-08-07T14:15:13.020Z,15.35
2023-08-07T14:20:14.730Z,14.96
2023-08-07T14:25:16.486Z,14.83
2023-08-07T14:30:18.150Z,14.93
2023-08-07T14:35:19.978Z,15.11
2023-08-07T14:40:21.682Z,15.40
2023-08-07T14:45:24.893Z,15.65
2023-08-07T14:50:26.666Z,15.87
2023-08-07T14:55:28.560Z,16.20
2023-08-07T15:00:30.308Z,16.63
2023-08-07T15:05:32.019Z,16.65
2023-08-07T15:10:34.236Z,16.47
2023-08-07T15:15:36.884Z,16.15
2023-08-07T15:20:38.564Z,15.82
2023-08-07T15:25:40.364Z,15.56
2023-08-07T15:30:48.306Z,15.39
2023-08-07T15:35:52.691Z,15.40
2023-08-07T15:40:54.503Z,15.60
2023-08-07T15:45:56.288Z,15.67
2023-08-07T15:50:57.975Z,15.74
2023-08-07T15:55:59.648Z,15.64
2023-08-07T16:01:01.367Z,15.13
2023-08-07T16:06:03.124Z,14.66
2023-08-07T16:11:05.526Z,14.24
2023-08-07T16:16:07.270Z,13.99
2023-08-07T16:21:09.840Z,13.96
2023-08-07T16:26:12.101Z,14.03
2023-08-07T16:31:15.027Z,14.07
2023-08-07T16:36:16.736Z,14.13
2023-08-07T16:41:18.408Z,14.23
2023-08-07T16:46:20.862Z,14.43
2023-08-07T16:51:22.559Z,14.51
2023-08-07T16:56:24.935Z,14.51
2023-08-07T17:01:26.717Z,14.45
2023-08-07T17:06:28.481Z,14.29
2023-08-07T17:11:31.680Z,14.17
2023-08-07T17:16:33.365Z,14.16
2023-08-07T17:21:35.057Z,14.15
2023-08-07T17:26:36.711Z,14.08
2023-08-07T17:31:38.407Z,13.96
2023-08-07T17:36:40.274Z,13.92
2023-08-07T17:41:42.110Z,13.96
2023-08-07T17:46:44.022Z,13.96
2023-08-07T17:51:45.755Z,13.95
2023-08-07T17:56:48.048Z,13.89
2023-08-07T18:01:49.727Z,13.81
2023-08-07T18:06:53.442Z,13.77
2023-08-07T18:11:55.107Z,13.76
2023-08-07T18:16:57.220Z,13.82
2023-08-07T18:22:00.687Z,13.95
2023-08-07T18:27:02.372Z,14.00
2023-08-07T18:32:05.632Z,13.94
2023-08-07T18:37:07.370Z,13.96
2023-08-07T18:42:09.100Z,13.85
2023-08-07T18:47:10.766Z,13.76
2023-08-07T18:52:12.459Z,13.66
2023-08-07T18:57:14.233Z,13.59
2023-08-07T19:02:15.960Z,13.57
2023-08-07T19:07:17.706Z,13.54
2023-08-07T19:12:19.354Z,13.57
2023-08-07T19:17:20.992Z,13.58
2023-08-07T19:22:22.780Z,13.63
2023-08-07T19:27:25.082Z,13.69
2023-08-07T19:32:27.297Z,13.65
2023-08-07T19:37:29.067Z,13.64
2023-08-07T19:42:31.661Z,13.63
2023-08-07T19:47:36.522Z,13.58
2023-08-07T19:52:38.764Z,13.61
2023-08-07T19:57:40.561Z,13.69
2023-08-07T20:02:42.575Z,13.71
2023-08-07T20:07:44.244Z,13.70
2023-08-07T20:12:46.210Z,13.81
2023-08-07T20:17:49.789Z,13.85
2023-08-07T20:22:51.633Z,13.91
2023-08-07T20:27:53.833Z,13.93
2023-08-07T20:32:55.578Z,13.93
2023-08-07T20:37:57.385Z,13.99
2023-08-07T20:43:01.946Z,14.07
2023-08-07T20:48:03.928Z,14.06
2023-08-07T20:53:05.824Z,14.07
2023-08-07T20:58:07.484Z,14.08
2023-08-07T21:03:09.189Z,14.08
2023-08-07T21:08:11.019Z,14.08
2023-08-07T21:13:12.680Z,14.13
2023-08-07T21:18:14.441Z,14.16
2023-08-07T21:23:17.067Z,14.15
2023-08-07T21:28:18.805Z,14.15
2023-08-07T21:33:20.527Z,14.11
2023-08-07T21:38:22.204Z,14.05
2023-08-07T21:43:23.974Z,14.03
2023-08-07T21:48:25.616Z,13.99
2023-08-07T21:53:27.306Z,13.98
2023-08-07T21:58:29.050Z,14.00
2023-08-07T22:03:32.484Z,14.01
2023-08-07T22:08:34.282Z,13.99
2023-08-07T22:13:35.971Z,13.98
2023-08-07T22:18:38.237Z,13.93
2023-08-07T22:23:40.747Z,13.91
2023-08-07T22:28:42.541Z,13.89
2023-08-07T22:33:44.292Z,13.88
2023-08-07T22:38:46.011Z,13.81
2023-08-07T22:43:47.792Z,13.73
2023-08-07T22:48:49.496Z,13.65
2023-08-07T22:53:51.337Z,13.55
2023-08-07T22:58:53.205Z,13.50
2023-08-07T23:03:54.957Z,13.47
2023-08-07T23:08:56.733Z,13.46
2023-08-07T23:13:58.567Z,13.46
2023-08-07T23:19:00.301Z,13.43
2023-08-07T23:24:02.108Z,13.40
2023-08-07T23:29:03.786Z,13.37
2023-08-07T23:34:05.485Z,13.34
2023-08-07T23:39:07.201Z,13.24
2023-08-07T23:44:08.888Z,13.20
2023-08-07T23:49:10.578Z,13.22
2023-08-07T23:54:12.505Z,13.17
2023-08-07T23:59:14.317Z,13.12
